createdAt,value
2023-03-22T00:00:31.516Z,100260.05
2023-03-22T00:02:37.338Z,100261.52
2023-03-22T00:04:43.291Z,100257.2
2023-03-22T00:06:49.030Z,100251.19
2023-03-22T00:08:54.678Z,100251.32
2023-03-22T00:11:00.263Z,100248.09
2023-03-22T00:13:08.176Z,100251.28
2023-03-22T00:15:13.641Z,100251.09
2023-03-22T00:17:19.306Z,100249.2
2023-03-22T00:19:40.794Z,100245.23
2023-03-22T00:21:46.432Z,100249.3
2023-03-22T00:23:52.153Z,100246.66
2023-03-22T00:25:57.964Z,100244.13
2023-03-22T00:28:03.665Z,100241.16
2023-03-22T00:30:09.625Z,100244.34
2023-03-22T00:32:15.048Z,100235.98
2023-03-22T00:34:20.995Z,100237.41
2023-03-22T00:36:26.326Z,100238.6
2023-03-22T00:38:44.359Z,100232.41
2023-03-22T00:40:50.189Z,100232.08
2023-03-22T00:42:55.928Z,100231.14
2023-03-22T00:45:01.394Z,100229
2023-03-22T00:47:06.926Z,100230.8
2023-03-22T00:49:12.506Z,100231.13
2023-03-22T00:51:18.199Z,100231.19
2023-03-22T00:53:24.017Z,100232.92
2023-03-22T00:55:29.747Z,100236.58
2023-03-22T00:57:35.461Z,100234.52
2023-03-22T00:59:40.843Z,100234.78
2023-03-22T01:01:46.744Z,100235.63
2023-03-22T01:03:52.793Z,100231.41
2023-03-22T01:05:58.617Z,100232.77
2023-03-22T01:08:04.227Z,100236.47
2023-03-22T01:10:10.182Z,100236.08
2023-03-22T01:12:15.728Z,100230.45
2023-03-22T01:14:24.083Z,100226.97
2023-03-22T01:16:32.396Z,100224.08
2023-03-22T01:18:38.022Z,100220.33
2023-03-22T01:20:44.365Z,100222.84
2023-03-22T01:22:49.778Z,100220.58
2023-03-22T01:24:55.194Z,100216.73
2023-03-22T01:27:06.945Z,100213.3
2023-03-22T01:29:12.438Z,100213.13
2023-03-22T01:31:18.051Z,100211.88
2023-03-22T01:33:23.811Z,100210.06
2023-03-22T01:35:29.687Z,100207.63
2023-03-22T01:37:35.506Z,100208.89
2023-03-22T01:39:42.521Z,100203.08
2023-03-22T01:41:49.233Z,100200.58
2023-03-22T01:43:55.037Z,100197.69
2023-03-22T01:46:00.761Z,100199.34
2023-03-22T01:48:06.680Z,100195.44
2023-03-22T01:50:12.436Z,100192.07
2023-03-22T01:52:18.061Z,100188.77
2023-03-22T01:54:23.745Z,100186.37
2023-03-22T01:56:29.221Z,100181.11
2023-03-22T01:58:35.004Z,100180.03
2023-03-22T02:00:41.642Z,100181.23
2023-03-22T02:02:47.365Z,100177.42
2023-03-22T02:04:55.814Z,100182.84
2023-03-22T02:07:01.480Z,100178.72
2023-03-22T02:09:06.782Z,100176.92
2023-03-22T02:11:12.672Z,100175.14
2023-03-22T02:13:18.474Z,100174.75
2023-03-22T02:15:24.174Z,100171.55
2023-03-22T02:17:32.957Z,100167.55
2023-03-22T02:19:38.372Z,100170.48
2023-03-22T02:21:44.080Z,100171.25
2023-03-22T02:23:52.598Z,100166.98
2023-03-22T02:26:00.363Z,100171.36
2023-03-22T02:28:05.795Z,100172.44
2023-03-22T02:30:11.940Z,100165.45
2023-03-22T02:32:20.663Z,100165.81
2023-03-22T02:34:28.315Z,100168.86
2023-03-22T02:36:33.809Z,100160.33
2023-03-22T02:38:39.211Z,100168.11
2023-03-22T02:40:44.665Z,100170.3
2023-03-22T02:42:50.270Z,100165.48
2023-03-22T02:44:56.031Z,100166.27
2023-03-22T02:47:01.575Z,100161.66
2023-03-22T02:49:06.996Z,100159.03
2023-03-22T02:51:12.333Z,100159.03
2023-03-22T02:53:18.018Z,100158.61
2023-03-22T02:55:23.541Z,100155.16
2023-03-22T02:57:29.171Z,100151.97
2023-03-22T02:59:34.570Z,100147.53
2023-03-22T03:01:40.215Z,100151.01
2023-03-22T03:03:46.204Z,100148.55
2023-03-22T03:05:51.910Z,100152.82
2023-03-22T03:07:57.533Z,100149.83
2023-03-22T03:10:03.044Z,100148.84
2023-03-22T03:12:08.523Z,100150.41
2023-03-22T03:14:14.015Z,100142.94
2023-03-22T03:16:21.623Z,100145.3
2023-03-22T03:18:27.503Z,100150.21
2023-03-22T03:20:33.273Z,100151.84
2023-03-22T03:22:38.961Z,100148.86
2023-03-22T03:24:44.397Z,100151.57
2023-03-22T03:26:49.804Z,100147.05
2023-03-22T03:28:55.281Z,100147.11
2023-03-22T03:31:00.743Z,100142.44
2023-03-22T03:33:06.347Z,100147.22
2023-03-22T03:35:11.889Z,100145.31
2023-03-22T03:37:17.502Z,100145.55
2023-03-22T03:39:22.856Z,100146.05
2023-03-22T03:41:28.530Z,100143.06
2023-03-22T03:43:34.133Z,100142.72
2023-03-22T03:45:39.876Z,100140.46
2023-03-22T03:47:45.831Z,100140.45
2023-03-22T03:49:51.540Z,100142.95
2023-03-22T03:51:57.022Z,100141.67
2023-03-22T03:54:02.559Z,100146.7
2023-03-22T03:56:08.049Z,100152.48
2023-03-22T03:58:13.448Z,100147.55
2023-03-22T04:00:19.076Z,100150.73
2023-03-22T04:02:24.598Z,100151.33
2023-03-22T04:04:30.675Z,100146.58
2023-03-22T04:06:36.392Z,100147.22
2023-03-22T04:08:41.800Z,100143.05
2023-03-22T04:10:48.566Z,100146.42
2023-03-22T04:12:54.342Z,100146.56
2023-03-22T04:15:00.839Z,100149.25
2023-03-22T04:17:06.574Z,100146.25
2023-03-22T04:19:11.934Z,100143.87
2023-03-22T04:21:17.486Z,100140.55
2023-03-22T04:23:22.942Z,100137.86
2023-03-22T04:25:28.498Z,100138.77
2023-03-22T04:27:34.248Z,100139.91
2023-03-22T04:29:39.860Z,100141.9
2023-03-22T04:31:45.401Z,100141.55
2023-03-22T04:33:50.891Z,100139.67
2023-03-22T04:36:10.700Z,100141.13
2023-03-22T04:38:16.231Z,100138.98
2023-03-22T04:40:23.859Z,100137.13
2023-03-22T04:42:29.289Z,100140.63
2023-03-22T04:44:34.761Z,100144.14
2023-03-22T04:46:40.425Z,100148.89
2023-03-22T04:48:46.156Z,100149.05
2023-03-22T04:50:51.607Z,100157.37
2023-03-22T04:52:57.048Z,100154.66
2023-03-22T04:55:02.535Z,100152.02
2023-03-22T04:57:08.094Z,100154.41
2023-03-22T04:59:13.703Z,100154.19
2023-03-22T05:01:19.305Z,100160.7
2023-03-22T05:03:25.142Z,100158.92
2023-03-22T05:05:34.063Z,100157.34
2023-03-22T05:07:39.892Z,100161.56
2023-03-22T05:09:45.385Z,100168.88
2023-03-22T05:11:50.987Z,100168.55
2023-03-22T05:13:56.380Z,100167.33
2023-03-22T05:16:02.442Z,100168.18
2023-03-22T05:18:08.325Z,100166.53
2023-03-22T05:20:13.983Z,100165.41
2023-03-22T05:22:19.629Z,100167.13
2023-03-22T05:24:25.629Z,100166.34
2023-03-22T05:26:31.350Z,100164.64
2023-03-22T05:28:36.730Z,100164.97
2023-03-22T05:30:43.555Z,100162.19
2023-03-22T05:32:49.315Z,100162.1
2023-03-22T05:34:54.780Z,100163.83
2023-03-22T05:37:00.889Z,100164.2
2023-03-22T05:39:07.688Z,100161.86
2023-03-22T05:41:13.171Z,100158.82
2023-03-22T05:43:18.782Z,100156.97
2023-03-22T05:45:24.385Z,100161.95
2023-03-22T05:47:30.986Z,100165.76
2023-03-22T05:49:36.228Z,100162.16
2023-03-22T05:51:41.634Z,100163.05
2023-03-22T05:53:47.719Z,100159.44
2023-03-22T05:55:53.158Z,100163.64
2023-03-22T05:57:58.582Z,100162.72
2023-03-22T06:00:04.068Z,100161.79
2023-03-22T06:02:09.662Z,100166.52
2023-03-22T06:04:15.284Z,100164.67
2023-03-22T06:06:20.782Z,100167.85
2023-03-22T06:08:27.833Z,100171.45
2023-03-22T06:10:33.214Z,100166.5
2023-03-22T06:12:38.895Z,100165.27
2023-03-22T06:14:44.469Z,100163.58
2023-03-22T06:16:50.096Z,100165.76
2023-03-22T06:18:55.464Z,100167.67
2023-03-22T06:21:00.819Z,100165.13
2023-03-22T06:23:06.412Z,100162.27
2023-03-22T06:25:12.193Z,100164.66
2023-03-22T06:27:17.686Z,100167.52
2023-03-22T06:29:23.478Z,100164.7
2023-03-22T06:31:29.224Z,100166.39
2023-03-22T06:33:35.023Z,100169.38
2023-03-22T06:35:40.705Z,100171.13
2023-03-22T06:37:46.347Z,100167.95
2023-03-22T06:39:52.040Z,100168.97
2023-03-22T06:41:57.605Z,100164.84
2023-03-22T06:44:03.195Z,100161.13
2023-03-22T06:46:23.788Z,100158.83
2023-03-22T06:48:29.722Z,100156.34
2023-03-22T06:50:35.198Z,100156.94
2023-03-22T06:52:41.998Z,100149.5
2023-03-22T06:54:47.577Z,100150.32
2023-03-22T06:56:54.226Z,100144.26
2023-03-22T06:58:59.665Z,100143.89
2023-03-22T07:01:04.865Z,100137.58
2023-03-22T07:03:10.479Z,100138.05
2023-03-22T07:05:18.114Z,100138.68
2023-03-22T07:07:23.531Z,100132.58
2023-03-22T07:09:29.284Z,100131.27
2023-03-22T07:11:35.382Z,100128.41
2023-03-22T07:13:41.367Z,100121.97
2023-03-22T07:15:47.051Z,100124.4
2023-03-22T07:17:52.592Z,100127.44
2023-03-22T07:19:58.111Z,100121.55
2023-03-22T07:22:03.651Z,100120.22
2023-03-22T07:24:09.240Z,100116.27
2023-03-22T07:26:14.956Z,100112.19
2023-03-22T07:28:20.791Z,100114.09
2023-03-22T07:30:26.191Z,100118.43
2023-03-22T07:32:31.941Z,100115.08
2023-03-22T07:34:37.539Z,100111.86
2023-03-22T07:36:43.138Z,100111.02
2023-03-22T07:38:48.485Z,100106.63
2023-03-22T07:40:53.774Z,100101.53
2023-03-22T07:42:59.485Z,100098.28
2023-03-22T07:45:06.236Z,100097.45
2023-03-22T07:47:11.812Z,100092.1
2023-03-22T07:49:17.504Z,100090.52
2023-03-22T07:51:22.923Z,100088.65
2023-03-22T07:53:28.465Z,100081.05
2023-03-22T07:55:34.231Z,100085.38
2023-03-22T07:57:39.726Z,100083.53
2023-03-22T07:59:45.414Z,100083.89
2023-03-22T08:01:51.058Z,100083.08
2023-03-22T08:03:57.043Z,100085.2
2023-03-22T08:06:02.320Z,100077.41
2023-03-22T08:08:10.669Z,100074.03
2023-03-22T08:10:18.087Z,100075.14
2023-03-22T08:12:24.097Z,100069.52
2023-03-22T08:14:48.545Z,100067.04
2023-03-22T08:37:28.306Z,100050.97
2023-03-22T08:55:11.940Z,100051.61
2023-03-22T09:28:04.184Z,100028.25
2023-03-22T09:30:15.778Z,100029.3
2023-03-22T10:07:21.057Z,99979.48
2023-03-22T10:09:28.049Z,99980.38
2023-03-22T10:11:33.419Z,99982.98
2023-03-22T10:13:39.083Z,99980.55
2023-03-22T10:15:46.447Z,99971.78
2023-03-22T10:17:52.973Z,99971.64
2023-03-22T10:19:58.817Z,99967.38
2023-03-22T10:22:04.851Z,99969.98
2023-03-22T10:24:10.658Z,99962.55
2023-03-22T10:26:16.379Z,99965.53
2023-03-22T10:28:22.022Z,99972.73
2023-03-22T10:30:27.743Z,99968.66
2023-03-22T10:32:33.308Z,99966.8
2023-03-22T10:34:48.174Z,99974.66
2023-03-22T10:36:53.702Z,99973.36
2023-03-22T10:38:59.304Z,99970.02
2023-03-22T10:41:05.489Z,99969.26
2023-03-22T10:43:12.396Z,99960.36
2023-03-22T10:45:18.112Z,99962.91
2023-03-22T10:47:24.273Z,99966.1
2023-03-22T10:49:29.991Z,99966.84
2023-03-22T10:51:35.513Z,99959
2023-03-22T10:53:41.101Z,99961.28
2023-03-22T10:55:46.962Z,99965.2
2023-03-22T10:57:52.847Z,99960.98
2023-03-22T10:59:58.700Z,99957.16
2023-03-22T11:02:05.273Z,99960.8
2023-03-22T11:04:11.165Z,99962.06
2023-03-22T11:06:17.050Z,99964.27
2023-03-22T11:08:23.204Z,99965.39
2023-03-22T11:10:28.864Z,99961.02
2023-03-22T11:12:34.593Z,99956.3
2023-03-22T11:14:43.242Z,99956.67
2023-03-22T11:16:48.875Z,99948.5
2023-03-22T11:18:55.937Z,99948.8
2023-03-22T11:21:04.654Z,99946.42
2023-03-22T11:23:10.611Z,99941.82
2023-03-22T11:25:17.574Z,99938.73
2023-03-22T11:27:23.561Z,99933.98
2023-03-22T11:29:28.917Z,99933.62
2023-03-22T11:31:34.408Z,99933.48
2023-03-22T11:33:40.697Z,99934.76
2023-03-22T11:35:46.556Z,99938.48
2023-03-22T11:37:52.366Z,99935.75
2023-03-22T11:39:59.895Z,99940.7
2023-03-22T11:42:05.583Z,99936.77
2023-03-22T11:44:11.182Z,99935.81
2023-03-22T11:46:17.499Z,99935.23
2023-03-22T11:48:23.458Z,99929.89
2023-03-22T11:50:29.316Z,99929.58
2023-03-22T11:52:34.918Z,99925.22
2023-03-22T11:54:40.415Z,99920.98
2023-03-22T11:56:45.812Z,99917.88
2023-03-22T11:58:52.119Z,99915.55
2023-03-22T12:00:57.873Z,99913.98
2023-03-22T12:03:03.716Z,99911.47
2023-03-22T12:05:09.728Z,99910.92
2023-03-22T12:07:16.117Z,99913.95
2023-03-22T12:09:21.750Z,99912.05
2023-03-22T12:11:27.383Z,99905.52
2023-03-22T12:13:32.887Z,99906.77
2023-03-22T12:15:38.524Z,99900.66
2023-03-22T12:17:47.841Z,99895.23
2023-03-22T12:19:54.312Z,99895.48
2023-03-22T12:21:59.835Z,99889.98
2023-03-22T12:24:05.506Z,99886.39
2023-03-22T12:26:11.356Z,99889.56
2023-03-22T12:28:17.038Z,99878.73
2023-03-22T12:30:22.562Z,99874.88
2023-03-22T12:32:28.524Z,99876.38
2023-03-22T12:34:34.125Z,99875.56
2023-03-22T12:36:39.737Z,99872.02
2023-03-22T12:38:46.244Z,99873.72
2023-03-22T12:40:51.538Z,99867.34
2023-03-22T12:43:01.043Z,99862.08
2023-03-22T12:45:07.459Z,99864.95
2023-03-22T12:47:12.908Z,99863.71
2023-03-22T12:49:18.493Z,99864.31
2023-03-22T12:51:24.037Z,99862.69
2023-03-22T12:53:29.637Z,99861.49
2023-03-22T12:55:35.341Z,99859.23
2023-03-22T12:57:41.472Z,99861.42
2023-03-22T12:59:47.490Z,99858.48
2023-03-22T13:01:53.464Z,99856.17
2023-03-22T13:03:59.783Z,99855.17
2023-03-22T13:06:06.217Z,99851.34
2023-03-22T13:08:11.976Z,99846.08
2023-03-22T13:10:18.331Z,99851.44
2023-03-22T13:12:23.857Z,99852.33
2023-03-22T13:14:29.755Z,99845.83
2023-03-22T13:16:35.260Z,99844.09
2023-03-22T13:18:41.592Z,99837.51
2023-03-22T13:20:47.714Z,99839.3
2023-03-22T13:22:53.205Z,99835.65
2023-03-22T13:24:58.911Z,99832.3
2023-03-22T13:27:04.590Z,99829.67
2023-03-22T13:29:10.229Z,99827.36
2023-03-22T13:31:15.674Z,99826.55
2023-03-22T13:33:21.632Z,99826.42
2023-03-22T13:35:27.962Z,99828.55
2023-03-22T13:37:34.338Z,99823.23
2023-03-22T13:39:39.796Z,99823.45
2023-03-22T13:41:45.248Z,99823.17
2023-03-22T13:43:50.696Z,99818.69
2023-03-22T13:45:56.090Z,99821.66
2023-03-22T13:48:04.062Z,99821.92
2023-03-22T13:50:10.042Z,99824.25
2023-03-22T13:52:15.814Z,99819.75
2023-03-22T13:54:22.006Z,99817.11
2023-03-22T13:56:27.983Z,99818.25
2023-03-22T13:58:33.726Z,99812.39
2023-03-22T14:00:39.735Z,99808.78
2023-03-22T14:02:47.236Z,99801.91
2023-03-22T14:04:53.663Z,99798.64
2023-03-22T14:06:59.589Z,99797.91
2023-03-22T14:09:05.792Z,99797.7
2023-03-22T14:11:12.225Z,99797.2
2023-03-22T14:13:18.548Z,99793.44
2023-03-22T14:15:25.271Z,99792.66
2023-03-22T14:17:31.613Z,99791.66
2023-03-22T14:19:37.699Z,99795.45
2023-03-22T14:21:43.931Z,99790.31
2023-03-22T14:46:01.795Z,99781.72
2023-03-22T14:48:10.567Z,99782.97
2023-03-22T14:50:18.196Z,99783.08
2023-03-22T14:52:25.894Z,99776.95
2023-03-22T14:54:32.734Z,99774.77
2023-03-22T14:56:39.532Z,99772.16
2023-03-22T14:58:46.540Z,99768.53
2023-03-22T15:00:52.909Z,99771.14
2023-03-22T15:02:59.708Z,99765.49
2023-03-22T15:05:07.035Z,99761.89
2023-03-22T15:07:13.454Z,99761.09
2023-03-22T15:09:19.891Z,99757.73
2023-03-22T15:11:26.640Z,99755.09
2023-03-22T15:13:33.476Z,99750.86
2023-03-22T15:15:40.853Z,99746.71
2023-03-22T15:17:48.176Z,99742.59
2023-03-22T15:19:55.498Z,99745.42
2023-03-22T15:22:04.278Z,99741.63
2023-03-22T15:24:11.295Z,99739.05
2023-03-22T15:26:19.230Z,99739.66
2023-03-22T15:28:26.414Z,99746.08
2023-03-22T15:30:32.748Z,99744.66
2023-03-22T15:32:40.313Z,99743.56
2023-03-22T15:34:47.769Z,99748.3
2023-03-22T15:36:55.837Z,99751.46
2023-03-22T15:39:03.132Z,99752.42
2023-03-22T15:41:10.726Z,99755.61
2023-03-22T15:43:18.561Z,99752.91
2023-03-22T15:45:26.597Z,99747.8
2023-03-22T15:47:33.580Z,99748.23
2023-03-22T15:49:40.371Z,99741.27
2023-03-22T15:51:47.726Z,99739.19
2023-03-22T15:53:55.040Z,99739.26
2023-03-22T15:56:02.804Z,99732.56
2023-03-22T15:58:09.655Z,99725.84
2023-03-22T16:00:17.190Z,99722.2
2023-03-22T16:02:25.611Z,99718.7
2023-03-22T16:04:32.443Z,99713.49
2023-03-22T16:06:39.659Z,99714.98
2023-03-22T16:08:46.907Z,99715.77
2023-03-22T16:10:53.842Z,99721.3
2023-03-22T16:13:01.458Z,99722.32
2023-03-22T16:15:09.586Z,99719.34
2023-03-22T16:17:17.139Z,99722.23
2023-03-22T16:19:23.879Z,99722.53
2023-03-22T16:21:30.116Z,99721.37
2023-03-22T16:23:37.824Z,99719.91
2023-03-22T16:25:46.090Z,99721.41
2023-03-22T16:27:53.147Z,99722.97
2023-03-22T16:30:00.408Z,99720.08
2023-03-22T16:32:07.668Z,99720.69
2023-03-22T16:34:15.538Z,99722.52
2023-03-22T16:36:22.737Z,99721.98
2023-03-22T16:38:29.569Z,99720.53
2023-03-22T16:40:36.896Z,99721.65
2023-03-22T16:42:44.639Z,99719.31
2023-03-22T16:47:02.853Z,99719.59
2023-03-22T16:49:09.806Z,99720.05
2023-03-22T16:51:18.548Z,99718.95
2023-03-22T16:53:30.357Z,99721.5
2023-03-22T16:55:46.732Z,99724.63
2023-03-22T16:57:53.998Z,99721.92
2023-03-22T17:00:01.164Z,99723.22
2023-03-22T17:02:08.078Z,99723.83
2023-03-22T17:04:16.439Z,99729.37
2023-03-22T17:06:25.152Z,99725.2
2023-03-22T17:08:32.397Z,99729.25
2023-03-22T17:10:39.657Z,99731.09
2023-03-22T17:12:47.418Z,99731.06
2023-03-22T17:14:57.534Z,99731.59
2023-03-22T17:17:04.656Z,99732.88
2023-03-22T17:19:12.186Z,99731.05
2023-03-22T17:21:19.596Z,99737.2
2023-03-22T17:23:27.627Z,99737.16
2023-03-22T17:25:35.159Z,99740.09
2023-03-22T17:27:42.469Z,99739.36
2023-03-22T17:29:49.060Z,99741.62
2023-03-22T17:34:54.741Z,99744.34
2023-03-22T17:37:02.631Z,99748.26
2023-03-22T17:40:20.621Z,99749.38
2023-03-22T17:42:54.889Z,99749.05
2023-03-22T17:45:02.417Z,99748.02
2023-03-22T17:49:47.955Z,99750.98
2023-03-22T17:51:55.704Z,99753.63
2023-03-22T17:54:43.753Z,99757.05
2023-03-22T18:00:31.066Z,99757.29
2023-03-22T18:02:41.806Z,99760
2023-03-22T18:04:52.360Z,99754.64
2023-03-22T18:07:06.595Z,99752.25
2023-03-22T18:09:17.360Z,99753.55
2023-03-22T18:11:27.289Z,99754.97
2023-03-22T18:13:38.205Z,99752.23
2023-03-22T18:15:48.629Z,99751.22
2023-03-22T18:17:59.883Z,99753.41
2023-03-22T18:20:20.900Z,99751.17
2023-03-22T18:23:05.978Z,99751.72
2023-03-22T18:25:14.072Z,99749.5
2023-03-22T18:29:34.026Z,99748.34
2023-03-22T18:31:42.819Z,99749.81
2023-03-22T18:33:51.735Z,99744.63
2023-03-22T18:36:02.268Z,99744.76
2023-03-22T18:38:15.726Z,99745.16
2023-03-22T18:41:57.450Z,99747.08
2023-03-22T18:44:38.092Z,99748.73
2023-03-22T18:46:54.455Z,99746.18
2023-03-22T18:49:07.234Z,99747.51
2023-03-22T18:51:16.604Z,99749.9
2023-03-22T18:53:31.672Z,99748.81
2023-03-22T18:55:54.297Z,99745.61
2023-03-22T18:58:16.760Z,99746.31
2023-03-22T19:00:27.664Z,99749.22
2023-03-22T19:02:42.805Z,99747.63
2023-03-22T19:04:54.415Z,99746.45
2023-03-22T19:07:15.795Z,99746.14
2023-03-22T19:10:05.020Z,99740.61
2023-03-22T19:12:16.016Z,99739.35
2023-03-22T19:17:57.276Z,99738.39
2023-03-22T19:20:09.343Z,99737.66
2023-03-22T19:22:28.568Z,99741.31
2023-03-22T19:24:40.702Z,99738.28
2023-03-22T19:27:16.106Z,99738.04
2023-03-22T19:29:34.636Z,99730.98
2023-03-22T19:31:44.265Z,99731.95
2023-03-22T19:33:58.480Z,99728.8
2023-03-22T19:36:11.863Z,99727.83
2023-03-22T19:38:22.870Z,99722.14
2023-03-22T19:41:24.010Z,99724.64
2023-03-22T19:43:57.219Z,99728.6
2023-03-22T19:46:16.523Z,99721.3
2023-03-22T19:48:34.194Z,99721.86
2023-03-22T19:50:57.214Z,99722.71
2023-03-22T19:54:18.548Z,99719.98
2023-03-22T19:56:51.522Z,99719.38
2023-03-22T19:59:16.932Z,99721.53
2023-03-22T20:01:29.625Z,99719.89
2023-03-22T20:03:42.148Z,99718.84
2023-03-22T20:05:55.311Z,99719.98
2023-03-22T20:08:09.268Z,99721.38
2023-03-22T20:10:22.868Z,99715.13
2023-03-22T20:12:36.152Z,99720.89
2023-03-22T20:14:46.447Z,99716.8
2023-03-22T20:17:10.464Z,99717.11
2023-03-22T20:19:31.958Z,99717.59
2023-03-22T20:21:43.077Z,99719.06
2023-03-22T20:23:56.308Z,99720.79
2023-03-22T20:26:11.191Z,99719.9
2023-03-22T20:28:20.916Z,99719.22
2023-03-22T20:30:47.646Z,99717.41
2023-03-22T20:32:58.472Z,99719.63
2023-03-22T20:35:09.854Z,99716.28
2023-03-22T20:37:21.161Z,99718.31
2023-03-22T20:39:47.619Z,99715.59
2023-03-22T20:42:02.919Z,99708.73
2023-03-22T20:44:14.427Z,99711.62
2023-03-22T20:46:24.898Z,99708.8
2023-03-22T20:48:39.307Z,99710.67
2023-03-22T20:50:53.128Z,99707.36
2023-03-22T20:53:02.648Z,99707.17
2023-03-22T20:55:15.291Z,99705.34
2023-03-22T20:57:25.147Z,99703.09
2023-03-22T20:59:37.713Z,99703.13
2023-03-22T21:01:49.996Z,99703.32
2023-03-22T21:03:59.490Z,99701.72
2023-03-22T21:06:07.325Z,99700.73
2023-03-22T21:08:16.810Z,99698.84
2023-03-22T21:10:23.707Z,99701.8
2023-03-22T21:12:31.195Z,99699.33
2023-03-22T21:14:39.543Z,99706.34
2023-03-22T21:16:46.630Z,99704.67
2023-03-22T21:18:54.112Z,99701.65
2023-03-22T21:21:01.200Z,99703.48
2023-03-22T21:23:07.983Z,99705.17
2023-03-22T21:25:17.128Z,99708.59
2023-03-22T21:27:26.343Z,99705.8
2023-03-22T21:29:34.207Z,99706.59
2023-03-22T21:31:41.253Z,99702.36
2023-03-22T21:33:47.782Z,99707.03
2023-03-22T21:35:55.428Z,99701.06
2023-03-22T21:38:03.246Z,99700.11
2023-03-22T21:40:10.647Z,99701.55
2023-03-22T21:42:17.917Z,99701.78
2023-03-22T21:44:24.273Z,99701.25
2023-03-22T21:46:30.829Z,99701.11
2023-03-22T21:48:38.190Z,99698.78
2023-03-22T21:50:45.237Z,99692.23
2023-03-22T21:52:53.061Z,99684.69
2023-03-22T21:54:59.932Z,99689.25
2023-03-22T21:57:06.940Z,99685.4
2023-03-22T21:59:14.179Z,99686.11
2023-03-22T22:01:21.521Z,99687.17
2023-03-22T22:03:28.348Z,99688.08
2023-03-22T22:05:35.329Z,99689.73
2023-03-22T22:07:42.419Z,99692.26
2023-03-22T22:09:50.030Z,99687.41
2023-03-22T22:11:57.537Z,99689.78
2023-03-22T22:14:03.878Z,99689.28
2023-03-22T22:16:10.393Z,99688.94
2023-03-22T22:18:17.145Z,99690.19
2023-03-22T22:20:24.037Z,99684.32
2023-03-22T22:22:30.944Z,99683.66
2023-03-22T22:24:38.160Z,99682.94
2023-03-22T22:26:46.778Z,99684.55
2023-03-22T22:28:53.372Z,99681.91
2023-03-22T22:31:00.029Z,99680.91
2023-03-22T22:33:06.538Z,99680.34
2023-03-22T22:35:13.415Z,99679.41
2023-03-22T22:37:19.909Z,99676.12
2023-03-22T22:39:26.853Z,99679.34
2023-03-22T22:41:33.718Z,99677.61
2023-03-22T22:43:40.088Z,99679.46
2023-03-22T22:45:47.287Z,99677.67
2023-03-22T22:47:54.245Z,99674.53
2023-03-22T22:50:00.928Z,99672.91
2023-03-22T22:52:07.364Z,99673.73
2023-03-22T22:54:14.050Z,99669.61
2023-03-22T22:56:20.717Z,99670.02
2023-03-22T22:58:27.602Z,99668.83
2023-03-22T23:00:35.184Z,99668.36
2023-03-22T23:02:42.041Z,99664.75
2023-03-22T23:04:50.063Z,99663.05
2023-03-22T23:06:57.218Z,99660.77
2023-03-22T23:09:04.405Z,99663.39
2023-03-22T23:11:10.889Z,99661.56
2023-03-22T23:13:18.129Z,99655.13
2023-03-22T23:15:28.890Z,99655.6
2023-03-22T23:17:35.423Z,99653.09
2023-03-22T23:19:42.308Z,99656.64
2023-03-22T23:21:48.854Z,99648.42
2023-03-22T23:23:55.428Z,99647.32
2023-03-22T23:26:02.216Z,99644.17
2023-03-22T23:28:09.010Z,99644.32
2023-03-22T23:30:16.315Z,99638.02
2023-03-22T23:32:22.927Z,99635.95
2023-03-22T23:34:29.513Z,99634.27
2023-03-22T23:36:36.032Z,99635
2023-03-22T23:38:42.472Z,99631.66
2023-03-22T23:40:49.461Z,99634.8
2023-03-22T23:42:56.031Z,99630.56
2023-03-22T23:45:02.656Z,99627.92
2023-03-22T23:47:10.631Z,99635.75
2023-03-22T23:49:18.446Z,99631.88
2023-03-22T23:51:25.275Z,99636.08
2023-03-22T23:53:32.152Z,99635.52
2023-03-22T23:55:39.151Z,99635.84
2023-03-22T23:57:46.191Z,99632.78
2023-03-22T23:59:54.105Z,99632.14
